Time;durP1;ratioP1;P1;durP2;ratioP2;P2;SDS_P1;SDS_P2;PMS_P1;PMS_P2;Temp;Humidity;BMP_temperature;BMP_pressure;BME280_temperature;BME280_humidity;BME280_pressure;Samples;Min_cycle;Max_cycle;Signal;HPM_P1;HPM_P2
2022/05/25 00:01:33;;;;;;;6.55;4.80;;;10.00;99.90;;;;;;4971358;28;20047;-41
2022/05/25 00:04:00;;;;;;;7.95;4.70;;;9.90;99.90;;;;;;4969909;28;20046;-41
2022/05/25 00:06:26;;;;;;;5.60;4.90;;;9.90;99.90;;;;;;4958304;28;20050;-41
2022/05/25 00:08:53;;;;;;;7.72;4.72;;;9.90;99.90;;;;;;4982798;28;20050;-41
2022/05/25 00:11:18;;;;;;;5.78;4.65;;;9.70;99.90;;;;;;5009358;28;20061;-41
2022/05/25 00:13:44;;;;;;;5.55;4.57;;;9.80;99.90;;;;;;4976095;28;20054;-41
2022/05/25 00:16:10;;;;;;;6.07;4.22;;;9.90;99.90;;;;;;4962493;28;20104;-41
2022/05/25 00:18:36;;;;;;;6.50;4.25;;;9.80;99.90;;;;;;4979526;28;20049;-42
2022/05/25 00:21:02;;;;;;;7.50;4.33;;;9.80;99.90;;;;;;4989022;28;20125;-41
2022/05/25 00:23:27;;;;;;;7.07;4.03;;;9.80;99.90;;;;;;4984281;28;20050;-41
2022/05/25 00:25:53;;;;;;;5.23;4.50;;;9.70;99.90;;;;;;4970910;28;20716;-41
2022/05/25 00:28:19;;;;;;;6.53;4.80;;;9.80;99.90;;;;;;4953995;28;20185;-41
2022/05/25 00:30:46;;;;;;;6.07;5.10;;;9.70;99.90;;;;;;4971004;28;20043;-41
2022/05/25 00:33:12;;;;;;;10.20;5.70;;;9.60;99.90;;;;;;4962247;28;20105;-41
2022/05/25 00:35:41;;;;;;;7.67;5.67;;;9.60;99.90;;;;;;4969897;28;20506;-41
2022/05/25 00:38:08;;;;;;;8.57;5.80;;;9.60;99.90;;;;;;4953504;28;20054;-41
2022/05/25 00:40:39;;;;;;;8.23;5.63;;;9.60;99.90;;;;;;4968320;28;20080;-41
2022/05/25 00:43:06;;;;;;;8.77;6.30;;;9.50;99.90;;;;;;4964943;28;20047;-41
2022/05/25 00:45:35;;;;;;;9.43;6.23;;;9.50;99.90;;;;;;4968827;28;20058;-41
2022/05/25 00:48:02;;;;;;;8.20;6.43;;;9.50;99.90;;;;;;4957811;28;20125;-41
2022/05/25 00:51:11;;;;;;;8.83;6.00;;;9.50;99.90;;;;;;4972960;28;20058;-41
2022/05/25 00:53:13;;;;;;;8.47;6.03;;;9.50;99.90;;;;;;4991552;28;20050;-41
2022/05/25 00:55:40;;;;;;;8.13;6.57;;;9.50;99.90;;;;;;5009122;28;20060;-41
2022/05/25 00:58:06;;;;;;;8.40;7.00;;;9.50;99.90;;;;;;4968638;28;20051;-41
2022/05/25 01:00:32;;;;;;;7.87;6.47;;;9.40;99.90;;;;;;4972787;28;20061;-41
2022/05/25 01:03:06;;;;;;;8.70;7.00;;;9.40;99.90;;;;;;4973153;28;20054;-41
2022/05/25 01:05:38;;;;;;;8.90;7.23;;;9.40;99.90;;;;;;4973096;28;20054;-41
2022/05/25 01:08:30;;;;;;;8.40;6.83;;;9.40;99.90;;;;;;4967324;28;20050;-41
2022/05/25 01:10:59;;;;;;;8.30;7.27;;;9.40;99.90;;;;;;4995403;28;20505;-41
2022/05/25 01:13:52;;;;;;;10.70;8.13;;;9.40;99.90;;;;;;4983521;28;20421;-41
2022/05/25 01:16:56;;;;;;;12.27;8.27;;;9.40;99.90;;;;;;4962863;28;20046;-42
2022/05/25 01:19:24;;;;;;;13.40;7.90;;;9.40;99.90;;;;;;5009048;28;20164;-41
2022/05/25 01:21:54;;;;;;;10.57;8.03;;;9.40;99.90;;;;;;4998597;28;20433;-41
2022/05/25 01:24:52;;;;;;;11.13;8.40;;;9.50;99.90;;;;;;4973532;28;20039;-41
2022/05/25 01:27:28;;;;;;;12.60;8.97;;;9.40;99.90;;;;;;4957242;28;20057;-41
2022/05/25 01:30:17;;;;;;;10.00;8.80;;;9.30;99.90;;;;;;4974138;28;20058;-41
2022/05/25 01:32:55;;;;;;;12.53;8.67;;;9.40;99.90;;;;;;4976459;28;20042;-41
2022/05/25 01:35:30;;;;;;;11.87;8.33;;;9.30;99.90;;;;;;4973356;28;20055;-41
2022/05/25 01:38:18;;;;;;;11.07;8.23;;;9.30;99.90;;;;;;4956717;28;20054;-41
2022/05/25 01:40:50;;;;;;;13.27;9.37;;;9.30;99.90;;;;;;4969767;28;20051;-41
2022/05/25 01:43:38;;;;;;;12.77;9.40;;;9.30;99.90;;;;;;4968404;28;20506;-41
2022/05/25 01:46:22;;;;;;;18.63;9.50;;;9.30;99.90;;;;;;4973003;28;20053;-41
2022/05/25 01:48:51;;;;;;;14.13;8.97;;;9.30;99.90;;;;;;4987641;28;20054;-41
2022/05/25 01:51:21;;;;;;;11.57;9.27;;;9.20;99.90;;;;;;4973366;28;20047;-41
2022/05/25 01:53:51;;;;;;;11.63;8.87;;;9.30;99.90;;;;;;4971330;28;20043;-41
2022/05/25 01:56:21;;;;;;;11.35;9.20;;;9.20;99.90;;;;;;4962376;28;20050;-41
2022/05/25 01:58:56;;;;;;;12.50;9.23;;;9.20;99.90;;;;;;4974831;28;20086;-41
2022/05/25 02:01:22;;;;;;;11.93;9.47;;;9.30;99.90;;;;;;4973367;28;20453;-41
2022/05/25 02:07:20;;;;;;;14.07;9.13;;;9.20;99.90;;;;;;4946239;28;20576;-41
2022/05/25 02:09:53;;;;;;;12.73;9.40;;;9.20;99.90;;;;;;4987314;28;20053;-41
2022/05/25 02:13:03;;;;;;;13.47;10.10;;;9.30;99.90;;;;;;4965339;28;20093;-41
2022/05/25 02:15:35;;;;;;;12.47;9.80;;;9.20;99.90;;;;;;4972567;28;20063;-41
2022/05/25 02:18:32;;;;;;;12.37;9.70;;;9.10;99.90;;;;;;4956508;28;20043;-41
2022/05/25 02:21:17;;;;;;;15.00;10.13;;;9.10;99.90;;;;;;5004374;28;20085;-41
2022/05/25 02:23:56;;;;;;;12.50;9.67;;;9.10;99.90;;;;;;4971958;28;20050;-41
2022/05/25 02:26:28;;;;;;;13.60;9.90;;;9.10;99.90;;;;;;4960260;28;20085;-41
2022/05/25 02:29:00;;;;;;;15.80;10.60;;;9.10;99.90;;;;;;4970209;28;20047;-41
2022/05/25 02:31:30;;;;;;;13.17;10.43;;;9.10;99.90;;;;;;4972486;28;20049;-42
2022/05/25 02:34:01;;;;;;;14.77;11.07;;;9.00;99.90;;;;;;4969899;28;20494;-41
2022/05/25 02:36:28;;;;;;;;;;;9.00;99.90;;;;;;4960369;28;20045;-41
2022/05/25 02:38:53;;;;;;;13.77;10.83;;;9.00;99.90;;;;;;4969076;28;20389;-41
2022/05/25 02:41:33;;;;;;;14.03;10.40;;;9.00;99.90;;;;;;4964357;28;20118;-41
2022/05/25 02:44:00;;;;;;;19.67;11.70;;;9.00;99.90;;;;;;4971641;28;20069;-41
2022/05/25 02:46:26;;;;;;;14.70;11.10;;;9.00;99.90;;;;;;4960102;28;20046;-41
2022/05/25 02:48:52;;;;;;;15.07;11.13;;;9.00;99.90;;;;;;4967725;28;20050;-41
2022/05/25 02:51:18;;;;;;;17.20;12.37;;;9.00;99.90;;;;;;4970887;28;20082;-41
2022/05/25 02:53:44;;;;;;;15.63;11.67;;;9.00;99.90;;;;;;4998353;28;20088;-41
2022/05/25 02:56:10;;;;;;;15.10;11.83;;;8.90;99.90;;;;;;5003315;28;20108;-41
2022/05/25 02:58:36;;;;;;;16.37;11.93;;;9.00;99.90;;;;;;4952909;28;20050;-41
2022/05/25 03:01:02;;;;;;;15.13;11.37;;;9.00;99.90;;;;;;4971685;28;20187;-41
2022/05/25 03:03:28;;;;;;;16.50;12.67;;;9.00;99.90;;;;;;4971235;28;20595;-41
2022/05/25 03:05:54;;;;;;;16.73;11.70;;;9.00;99.90;;;;;;4954652;28;20079;-41
2022/05/25 03:08:20;;;;;;;16.17;12.67;;;8.90;99.90;;;;;;4967040;28;20409;-41
2022/05/25 03:10:47;;;;;;;17.73;12.67;;;8.90;99.90;;;;;;4992229;28;20054;-41
2022/05/25 03:13:13;;;;;;;16.70;12.33;;;8.90;99.90;;;;;;4984696;28;20058;-41
2022/05/25 03:15:39;;;;;;;16.77;12.13;;;8.90;99.90;;;;;;4971508;28;20090;-41
2022/05/25 03:18:05;;;;;;;15.03;11.50;;;8.90;99.90;;;;;;4972287;28;20065;-41
2022/05/25 03:20:31;;;;;;;20.07;12.90;;;8.90;99.90;;;;;;5000561;28;20489;-41
2022/05/25 03:22:56;;;;;;;17.80;12.37;;;9.00;99.90;;;;;;5009994;28;20067;-41
2022/05/25 03:25:22;;;;;;;18.97;12.93;;;8.90;99.90;;;;;;5009685;28;20038;-41
2022/05/25 03:27:48;;;;;;;17.40;13.40;;;8.90;99.90;;;;;;4974321;28;20137;-41
2022/05/25 03:30:15;;;;;;;17.67;13.83;;;8.80;99.90;;;;;;4990604;28;20050;-42
2022/05/25 03:32:42;;;;;;;18.47;13.73;;;8.80;99.90;;;;;;4992008;28;20049;-41
2022/05/25 03:35:09;;;;;;;20.37;13.90;;;8.80;99.90;;;;;;4996977;28;20378;-41
2022/05/25 03:37:36;;;;;;;18.43;13.37;;;8.80;99.90;;;;;;4993696;28;20054;-42
2022/05/25 03:40:04;;;;;;;19.20;14.50;;;8.80;99.90;;;;;;5010471;28;20045;-41
2022/05/25 03:42:30;;;;;;;21.17;13.67;;;8.80;99.90;;;;;;4991422;28;20064;-42
2022/05/25 03:44:55;;;;;;;26.23;21.73;;;8.80;99.90;;;;;;5006997;28;20498;-41
2022/05/25 03:47:21;;;;;;;23.77;17.33;;;8.80;99.90;;;;;;4975023;28;20047;-41
2022/05/25 03:49:47;;;;;;;19.33;15.03;;;8.80;99.90;;;;;;4990100;28;20046;-41
2022/05/25 03:52:18;;;;;;;20.70;16.17;;;8.80;99.90;;;;;;4989477;28;20098;-42
2022/05/25 03:54:44;;;;;;;27.00;18.97;;;8.80;99.90;;;;;;4988682;28;20089;-42
2022/05/25 03:57:10;;;;;;;21.87;15.73;;;8.80;99.90;;;;;;4974214;28;20094;-42
2022/05/25 03:59:35;;;;;;;20.70;16.50;;;8.80;99.90;;;;;;4989864;28;20069;-41
2022/05/25 04:02:01;;;;;;;19.60;14.90;;;8.80;99.90;;;;;;4990140;28;20038;-41
2022/05/25 04:04:27;;;;;;;20.33;15.73;;;8.80;99.90;;;;;;4976610;28;20058;-41
2022/05/25 04:06:52;;;;;;;22.57;16.37;;;8.80;99.90;;;;;;4954221;28;20415;-41
2022/05/25 04:09:18;;;;;;;21.27;16.50;;;8.80;99.90;;;;;;4987616;28;20054;-41
2022/05/25 04:11:44;;;;;;;21.17;15.57;;;9.00;99.90;;;;;;4994074;28;20041;-41
2022/05/25 04:14:12;;;;;;;22.00;17.40;;;8.80;99.90;;;;;;4991383;28;20113;-41
2022/05/25 04:16:38;;;;;;;22.87;17.07;;;8.90;99.90;;;;;;4985325;28;20533;-41
2022/05/25 04:19:03;;;;;;;28.30;19.03;;;8.90;99.90;;;;;;4987756;28;20046;-41
2022/05/25 04:21:29;;;;;;;23.70;17.83;;;8.90;99.90;;;;;;4988345;28;20101;-41
2022/05/25 04:23:55;;;;;;;24.40;18.13;;;9.00;99.90;;;;;;4989575;28;20074;-41
2022/05/25 04:26:20;;;;;;;23.73;17.87;;;9.00;99.90;;;;;;4978895;28;20046;-41
2022/05/25 04:28:46;;;;;;;22.07;16.20;;;9.00;99.90;;;;;;5000028;28;20054;-41
2022/05/25 04:31:12;;;;;;;22.90;16.57;;;9.00;99.90;;;;;;5008347;28;20049;-41
2022/05/25 04:33:40;;;;;;;22.80;16.40;;;9.10;99.90;;;;;;4996469;28;20061;-41
2022/05/25 04:36:06;;;;;;;25.13;16.90;;;9.10;99.90;;;;;;4988636;28;20046;-41
2022/05/25 04:38:32;;;;;;;22.57;16.37;;;9.20;99.90;;;;;;4978833;28;20046;-41
2022/05/25 04:40:58;;;;;;;23.50;16.00;;;9.20;99.90;;;;;;4984311;28;20061;-41
2022/05/25 04:43:24;;;;;;;20.97;16.33;;;9.40;99.90;;;;;;4967228;28;20134;-41
2022/05/25 04:45:52;;;;;;;24.30;16.97;;;9.30;99.90;;;;;;4968737;28;20055;-41
2022/05/25 04:48:21;;;;;;;23.67;16.33;;;9.30;99.90;;;;;;4963780;28;20060;-41
2022/05/25 04:50:47;;;;;;;23.57;16.07;;;9.30;99.90;;;;;;4990011;28;20042;-41
2022/05/25 04:53:15;;;;;;;22.43;16.70;;;9.40;99.90;;;;;;4989063;28;20057;-41
2022/05/25 04:58:27;;;;;;;21.63;15.63;;;9.50;99.90;;;;;;4972983;28;20108;-41
2022/05/25 05:00:53;;;;;;;23.20;15.07;;;9.60;99.90;;;;;;4989781;28;20692;-41
2022/05/25 05:03:21;;;;;;;22.50;16.20;;;9.60;99.90;;;;;;4988932;28;20480;-41
2022/05/25 05:05:47;;;;;;;22.17;14.40;;;9.70;99.90;;;;;;4989623;28;20054;-41
2022/05/25 05:08:13;;;;;;;26.80;15.50;;;9.80;99.90;;;;;;4972557;28;20437;-41
2022/05/25 05:10:39;;;;;;;21.93;15.33;;;9.90;99.90;;;;;;4988746;28;20050;-42
2022/05/25 05:13:07;;;;;;;20.63;15.40;;;9.90;99.90;;;;;;4993889;28;20095;-41
2022/05/25 05:15:34;;;;;;;21.03;15.00;;;10.00;99.90;;;;;;5000223;28;20053;-41
2022/05/25 05:18:00;;;;;;;21.08;15.43;;;10.10;99.90;;;;;;4980758;28;20041;-44
2022/05/25 05:20:26;;;;;;;22.47;16.67;;;10.20;99.90;;;;;;4992368;28;20053;-44
2022/05/25 05:22:51;;;;;;;27.33;18.23;;;10.30;99.90;;;;;;4970269;28;20043;-43
2022/05/25 05:25:17;;;;;;;21.97;16.53;;;10.40;99.90;;;;;;4966207;28;20043;-41
2022/05/25 05:27:45;;;;;;;20.70;15.70;;;10.50;99.90;;;;;;4948067;28;20070;-41
2022/05/25 05:30:13;;;;;;;23.25;15.20;;;10.50;99.90;;;;;;4968143;28;20050;-41
2022/05/25 05:32:39;;;;;;;21.60;15.10;;;10.70;99.90;;;;;;4965177;28;20049;-41
2022/05/25 05:35:05;;;;;;;17.38;13.98;;;10.70;99.90;;;;;;4971124;28;20055;-41
2022/05/25 05:37:54;;;;;;;17.38;14.75;;;10.90;99.90;;;;;;4957792;28;20541;-41
2022/05/25 05:40:21;;;;;;;20.05;14.88;;;10.90;99.90;;;;;;4972465;28;20061;-41
2022/05/25 05:42:50;;;;;;;20.63;14.75;;;11.10;99.90;;;;;;4964603;28;20125;-41
2022/05/25 05:45:20;;;;;;;18.52;13.32;;;11.20;99.90;;;;;;4973349;28;20114;-41
2022/05/25 05:47:58;;;;;;;18.55;12.20;;;11.30;99.90;;;;;;4960484;28;20043;-41
2022/05/25 05:50:25;;;;;;;14.82;11.75;;;11.40;99.90;;;;;;4980208;28;20080;-41
2022/05/25 05:52:52;;;;;;;18.23;12.13;;;11.50;99.90;;;;;;4990798;28;20046;-42
2022/05/25 05:55:19;;;;;;;17.20;12.18;;;11.50;99.90;;;;;;4992354;28;20394;-42
2022/05/25 05:57:45;;;;;;;14.93;11.07;;;11.70;99.90;;;;;;4975939;28;20530;-42
2022/05/25 06:00:13;;;;;;;15.32;10.90;;;11.80;99.90;;;;;;4992534;28;20046;-42
2022/05/25 06:02:39;;;;;;;13.63;10.05;;;11.90;99.90;;;;;;4991485;28;20168;-42
2022/05/25 06:05:05;;;;;;;14.57;10.40;;;12.00;99.90;;;;;;4992234;28;20549;-41
2022/05/25 06:07:30;;;;;;;15.82;9.95;;;12.10;99.90;;;;;;4977346;28;20084;-43
2022/05/25 06:09:57;;;;;;;13.95;9.43;;;12.30;99.90;;;;;;4992354;28;20066;-42
2022/05/25 06:12:23;;;;;;;15.00;9.35;;;12.20;99.90;;;;;;4987995;28;20039;-42
2022/05/25 06:14:49;;;;;;;12.55;9.23;;;12.40;99.90;;;;;;4972957;28;20054;-42
2022/05/25 06:19:59;;;;;;;12.23;9.18;;;12.50;99.90;;;;;;4972961;28;20165;-42
2022/05/25 06:22:26;;;;;;;14.90;8.35;;;12.60;99.90;;;;;;4971878;28;20473;-42
2022/05/25 06:24:52;;;;;;;13.13;8.70;;;12.70;99.90;;;;;;4964435;28;20046;-42
2022/05/25 06:27:20;;;;;;;10.73;8.63;;;12.80;99.90;;;;;;4949730;28;20055;-42
2022/05/25 06:29:47;;;;;;;14.13;9.13;;;12.90;99.90;;;;;;4968702;28;20558;-42
2022/05/25 06:32:14;;;;;;;11.05;8.88;;;13.00;99.90;;;;;;4970283;28;20466;-42
2022/05/25 06:34:42;;;;;;;12.63;8.30;;;13.10;99.90;;;;;;4964782;28;20069;-42
2022/05/25 06:37:13;;;;;;;11.63;7.70;;;13.20;99.90;;;;;;4956494;28;20051;-42
2022/05/25 06:39:39;;;;;;;12.77;8.77;;;13.20;99.90;;;;;;4969219;28;20055;-42
2022/05/25 06:42:06;;;;;;;9.88;7.95;;;13.30;99.90;;;;;;4962557;28;20049;-42
2022/05/25 06:44:32;;;;;;;12.00;8.18;;;13.40;99.90;;;;;;4971527;28;20047;-42
2022/05/25 06:46:58;;;;;;;8.90;6.93;;;13.50;99.90;;;;;;4956333;28;20113;-42
2022/05/25 06:49:25;;;;;;;11.98;7.22;;;13.60;99.90;;;;;;4970834;28;20143;-42
2022/05/25 06:51:50;;;;;;;9.52;6.43;;;13.70;99.90;;;;;;4970367;28;20042;-42
2022/05/25 06:54:18;;;;;;;10.63;6.95;;;13.60;99.90;;;;;;4993160;28;20049;-42
2022/05/25 06:56:44;;;;;;;12.80;6.45;;;13.80;99.90;;;;;;4986389;28;20038;-42
2022/05/25 06:59:11;;;;;;;9.13;6.60;;;13.80;99.90;;;;;;4988199;28;21053;-42
2022/05/25 07:01:38;;;;;;;11.57;6.43;;;13.90;99.90;;;;;;4989993;28;20409;-42
2022/05/25 07:04:05;;;;;;;8.68;6.15;;;14.00;99.90;;;;;;4995321;28;20507;-42
2022/05/25 07:06:33;;;;;;;8.45;5.45;;;14.00;99.90;;;;;;4985009;28;20687;-42
2022/05/25 07:08:59;;;;;;;9.68;5.47;;;14.10;99.90;;;;;;4973049;28;20050;-45
2022/05/25 07:11:25;;;;;;;9.73;6.15;;;14.20;99.90;;;;;;4946464;28;20153;-42
2022/05/25 07:13:51;;;;;;;9.15;5.38;;;14.20;99.90;;;;;;4948722;28;20051;-42
2022/05/25 07:16:19;;;;;;;8.50;5.63;;;14.20;99.90;;;;;;4929446;28;20054;-41
2022/05/25 07:18:45;;;;;;;9.20;5.35;;;14.20;99.90;;;;;;4930061;28;20129;-41
2022/05/25 07:21:15;;;;;;;10.15;5.68;;;14.20;99.90;;;;;;4950114;28;20100;-42
2022/05/25 07:23:43;;;;;;;9.57;5.82;;;14.30;99.90;;;;;;4935215;28;20138;-42
2022/05/25 07:26:09;;;;;;;7.68;5.38;;;14.40;99.90;;;;;;4924180;28;20525;-42
2022/05/25 07:28:36;;;;;;;10.38;5.43;;;14.40;99.90;;;;;;4935927;28;20601;-41
2022/05/25 07:31:09;;;;;;;9.10;5.15;;;14.50;99.90;;;;;;4940384;28;20054;-42
2022/05/25 07:33:38;;;;;;;9.80;5.63;;;14.60;99.90;;;;;;4935587;28;20045;-42
2022/05/25 07:36:05;;;;;;;8.63;4.70;;;14.60;99.90;;;;;;4930112;28;20066;-41
2022/05/25 07:38:31;;;;;;;11.82;5.25;;;14.70;99.90;;;;;;4931310;28;20127;-41
2022/05/25 07:40:59;;;;;;;7.28;5.43;;;14.80;99.90;;;;;;4939596;28;20047;-41
2022/05/25 07:43:29;;;;;;;8.45;5.90;;;14.80;99.90;;;;;;4932228;28;20039;-42
2022/05/25 07:45:54;;;;;;;8.43;5.50;;;15.00;99.90;;;;;;4937796;28;20054;-42
2022/05/25 07:48:20;;;;;;;9.10;5.45;;;15.00;99.90;;;;;;4929004;28;20058;-42
2022/05/25 07:50:46;;;;;;;7.78;5.07;;;15.00;99.90;;;;;;4928291;28;20134;-42
2022/05/25 07:56:01;;;;;;;7.22;4.80;;;15.10;99.90;;;;;;4936633;28;20130;-41
2022/05/25 07:58:27;;;;;;;7.03;4.88;;;15.20;99.90;;;;;;4904439;28;20138;-42
2022/05/25 08:00:54;;;;;;;8.30;5.50;;;15.20;99.90;;;;;;4937561;28;20995;-41
2022/05/25 08:06:06;;;;;;;8.05;4.13;;;15.30;99.90;;;;;;4944877;28;20149;-42
2022/05/25 08:08:31;;;;;;;9.65;4.85;;;15.30;99.90;;;;;;4940939;28;20050;-42
2022/05/25 08:11:01;;;;;;;8.02;4.93;;;15.40;99.90;;;;;;4964445;28;20049;-41
2022/05/25 08:13:27;;;;;;;6.90;4.93;;;15.40;99.90;;;;;;4955857;28;20058;-42
2022/05/25 08:15:54;;;;;;;7.25;5.57;;;15.40;99.90;;;;;;4958792;28;20804;-42
2022/05/25 08:18:20;;;;;;;7.68;5.85;;;15.40;99.90;;;;;;4930786;28;20473;-42
2022/05/25 08:20:46;;;;;;;7.07;4.95;;;15.50;99.90;;;;;;4948978;28;20058;-42
2022/05/25 08:23:15;;;;;;;6.32;4.05;;;15.50;99.90;;;;;;4929407;28;20169;-42
2022/05/25 08:25:41;;;;;;;10.85;5.45;;;15.60;99.90;;;;;;4948188;28;20061;-42
2022/05/25 08:28:08;;;;;;;7.18;5.90;;;15.60;99.90;;;;;;4941936;28;20413;-42
2022/05/25 08:30:36;;;;;;;5.97;4.88;;;15.70;99.90;;;;;;4956705;28;20707;-42
2022/05/25 08:33:01;;;;;;;8.35;5.53;;;15.70;99.90;;;;;;4959827;28;20042;-42
2022/05/25 08:35:27;;;;;;;7.18;5.03;;;15.80;99.90;;;;;;4971590;28;20168;-41
2022/05/25 08:38:00;;;;;;;6.47;4.82;;;15.80;99.90;;;;;;4956680;28;20054;-41
2022/05/25 08:40:28;;;;;;;7.28;4.60;;;15.80;99.90;;;;;;4952732;28;20053;-42
2022/05/25 08:43:08;;;;;;;8.30;5.43;;;15.90;99.90;;;;;;4972388;28;20564;-42
2022/05/25 08:45:41;;;;;;;7.07;4.45;;;15.90;99.90;;;;;;4968764;28;20054;-42
2022/05/25 08:48:10;;;;;;;6.22;3.80;;;15.90;99.90;;;;;;4954796;28;20158;-42
2022/05/25 08:50:37;;;;;;;4.25;3.85;;;16.00;99.90;;;;;;4970481;28;20085;-42
2022/05/25 08:53:05;;;;;;;5.03;4.20;;;16.10;99.90;;;;;;4972517;28;20046;-41
2022/05/25 08:56:04;;;;;;;6.63;4.28;;;16.20;99.90;;;;;;4973975;28;20448;-42
2022/05/25 08:58:41;;;;;;;5.32;3.42;;;16.30;99.90;;;;;;4958569;28;20046;-42
2022/05/25 09:01:10;;;;;;;4.78;3.67;;;16.30;99.90;;;;;;4989651;28;20049;-44
2022/05/25 09:03:52;;;;;;;5.88;3.42;;;16.30;99.90;;;;;;4973861;28;20065;-42
2022/05/25 09:06:44;;;;;;;4.78;3.60;;;16.40;99.90;;;;;;4960258;28;20038;-44
2022/05/25 09:09:18;;;;;;;3.88;2.95;;;16.40;99.90;;;;;;4972577;28;20498;-44
2022/05/25 09:11:51;;;;;;;6.15;3.60;;;16.50;99.90;;;;;;4967745;28;20061;-42
2022/05/25 09:14:26;;;;;;;6.68;2.95;;;16.50;99.90;;;;;;4952562;28;20073;-43
2022/05/25 09:16:54;;;;;;;6.50;3.10;;;16.50;99.90;;;;;;4934831;28;20510;-42
2022/05/25 09:19:31;;;;;;;5.90;3.28;;;16.50;99.90;;;;;;4951226;28;20039;-43
2022/05/25 09:22:16;;;;;;;3.05;2.63;;;16.50;99.90;;;;;;4952849;28;20057;-43
2022/05/25 09:24:42;;;;;;;4.60;2.40;;;16.50;99.90;;;;;;4951946;28;20089;-43
2022/05/25 09:27:12;;;;;;;4.30;3.38;;;16.60;99.90;;;;;;4934455;28;20059;-43
2022/05/25 09:29:37;;;;;;;4.00;2.50;;;16.60;99.90;;;;;;4941840;28;20499;-43
2022/05/25 09:32:06;;;;;;;5.57;3.10;;;16.70;99.90;;;;;;4945412;28;20118;-43
2022/05/25 09:34:39;;;;;;;5.45;2.92;;;16.70;99.90;;;;;;4950088;28;20069;-43
2022/05/25 09:37:41;;;;;;;7.18;3.50;;;16.70;99.90;;;;;;4922727;28;20061;-41
2022/05/25 09:40:15;;;;;;;5.13;3.45;;;16.70;99.90;;;;;;4956765;28;20081;-43
2022/05/25 09:42:40;;;;;;;6.22;3.47;;;16.70;99.90;;;;;;4940312;28;20073;-43
2022/05/25 09:45:15;;;;;;;3.55;2.90;;;16.70;99.90;;;;;;4944515;28;20058;-43
2022/05/25 09:47:44;;;;;;;5.00;3.05;;;16.70;99.90;;;;;;4925935;28;20047;-43
2022/05/25 09:50:29;;;;;;;6.60;2.83;;;16.70;99.90;;;;;;4946428;28;20083;-42
2022/05/25 09:52:55;;;;;;;3.95;2.53;;;16.80;99.90;;;;;;4947127;28;20047;-43
2022/05/25 09:55:28;;;;;;;3.75;2.92;;;16.80;99.90;;;;;;4938127;28;20464;-42
2022/05/25 09:58:04;;;;;;;5.60;3.15;;;16.80;99.90;;;;;;4928537;28;20053;-43
2022/05/25 10:00:33;;;;;;;7.15;3.38;;;16.80;99.90;;;;;;4939926;28;20697;-43
2022/05/25 10:03:04;;;;;;;4.78;2.45;;;16.80;99.90;;;;;;4937464;28;20102;-43
2022/05/25 10:05:48;;;;;;;3.63;2.90;;;16.80;99.90;;;;;;4939551;28;20166;-43
2022/05/25 10:08:41;;;;;;;4.00;2.92;;;16.80;99.90;;;;;;4926401;28;20070;-43
2022/05/25 10:11:33;;;;;;;5.25;3.08;;;16.80;99.90;;;;;;4947554;28;20528;-43
2022/05/25 10:14:15;;;;;;;;;;;16.80;99.90;;;;;;4943034;28;20082;-43
2022/05/25 10:16:41;;;;;;;4.60;2.42;;;16.90;99.90;;;;;;4924674;28;19931;-43
2022/05/25 10:19:13;;;;;;;3.90;2.30;;;16.90;99.90;;;;;;4933388;28;20078;-43
2022/05/25 10:21:45;;;;;;;3.50;2.40;;;16.90;99.90;;;;;;4945049;28;20813;-43
2022/05/25 10:24:36;;;;;;;4.13;2.70;;;16.80;99.90;;;;;;4938852;28;20047;-42
2022/05/25 10:27:04;;;;;;;5.65;2.78;;;16.80;99.90;;;;;;4930113;28;20716;-43
2022/05/25 10:38:32;;;;;;;5.03;2.85;;;16.70;99.90;;;;;;4936178;28;20061;-43
2022/05/25 10:41:37;;;;;;;4.05;2.95;;;16.60;99.90;;;;;;4941849;28;20072;-44
2022/05/25 10:44:02;;;;;;;3.80;2.72;;;16.70;99.90;;;;;;4942130;28;20137;-43
2022/05/25 10:46:30;;;;;;;6.55;3.10;;;16.70;99.90;;;;;;4936406;28;20656;-43
2022/05/25 10:49:08;;;;;;;5.55;3.30;;;16.70;99.90;;;;;;4941420;28;20098;-43
2022/05/25 10:52:04;;;;;;;4.55;2.92;;;16.70;99.90;;;;;;4939128;28;20057;-43
2022/05/25 10:54:55;;;;;;;4.15;3.28;;;16.70;99.90;;;;;;4942277;28;20508;-43
2022/05/25 10:57:36;;;;;;;8.98;5.93;;;16.70;99.90;;;;;;4941041;28;20057;-43
2022/05/25 11:00:23;;;;;;;6.30;2.72;;;16.60;99.90;;;;;;4941651;28;20067;-42
2022/05/25 11:03:05;;;;;;;5.70;1.40;;;16.30;99.90;;;;;;4932429;28;20043;-42
2022/05/25 11:05:54;;;;;;;3.05;1.13;;;15.80;99.90;;;;;;4945945;28;20051;-43
2022/05/25 11:08:29;;;;;;;2.67;0.98;;;15.40;99.90;;;;;;4925995;28;20073;-42
2022/05/25 11:11:12;;;;;;;1.80;0.75;;;15.00;99.90;;;;;;4935008;28;20059;-42
2022/05/25 11:14:14;;;;;;;1.33;0.80;;;14.80;99.90;;;;;;4938567;28;20236;-42
2022/05/25 11:16:55;;;;;;;3.63;1.00;;;14.60;99.90;;;;;;4931616;28;20058;-42
2022/05/25 11:19:59;;;;;;;1.83;1.10;;;14.60;99.90;;;;;;4944010;28;20055;-42
2022/05/25 11:22:49;;;;;;;3.13;1.55;;;14.60;99.90;;;;;;4942870;28;20080;-43
2022/05/25 11:25:42;;;;;;;2.37;1.63;;;14.70;99.90;;;;;;4937795;28;20067;-42
2022/05/25 11:28:35;;;;;;;6.15;2.85;;;14.70;99.90;;;;;;4926870;28;20304;-42
2022/05/25 11:31:22;;;;;;;3.88;1.92;;;14.70;99.90;;;;;;4942750;28;20130;-43
2022/05/25 11:34:06;;;;;;;3.25;2.22;;;14.80;99.90;;;;;;4944581;28;20055;-43
2022/05/25 11:36:48;;;;;;;2.55;2.35;;;14.80;99.90;;;;;;4932155;28;20058;-42
2022/05/25 11:39:31;;;;;;;5.97;2.67;;;14.90;99.90;;;;;;4942198;28;20078;-42
2022/05/25 11:42:08;;;;;;;5.82;3.80;;;15.00;99.90;;;;;;4943727;28;20078;-43
2022/05/25 11:44:43;;;;;;;7.47;4.85;;;15.10;99.90;;;;;;4941398;28;20101;-43
2022/05/25 11:47:32;;;;;;;5.43;4.88;;;15.10;99.90;;;;;;4929191;28;20086;-43
2022/05/25 11:50:26;;;;;;;7.03;5.65;;;15.20;99.90;;;;;;4943442;28;20729;-42
2022/05/25 11:52:58;;;;;;;8.52;6.30;;;15.30;99.90;;;;;;4965025;28;20133;-42
2022/05/25 11:55:30;;;;;;;6.28;5.68;;;15.30;99.90;;;;;;4939363;28;20058;-42
2022/05/25 11:58:05;;;;;;;8.95;6.05;;;15.40;99.90;;;;;;4929589;28;20065;-41
2022/05/25 12:00:49;;;;;;;8.73;5.68;;;15.50;99.90;;;;;;4942737;28;20546;-41
2022/05/25 12:03:42;;;;;;;7.00;5.43;;;15.60;99.90;;;;;;4933984;28;20059;-41
2022/05/25 12:06:20;;;;;;;5.22;3.33;;;15.70;99.90;;;;;;4932825;28;20042;-42
2022/05/25 12:09:15;;;;;;;6.13;4.20;;;15.80;99.90;;;;;;4930519;28;20062;-41
2022/05/25 12:12:10;;;;;;;5.35;1.33;;;15.90;99.90;;;;;;4937512;28;20127;-41
2022/05/25 12:14:45;;;;;;;4.78;0.70;;;16.00;99.90;;;;;;4940863;28;20058;-41
2022/05/25 12:17:35;;;;;;;3.03;0.50;;;16.10;99.90;;;;;;4868051;28;20070;-41
2022/05/25 12:20:02;;;;;;;4.97;0.68;;;16.10;99.90;;;;;;4934263;28;21800;-41
2022/05/25 12:22:32;;;;;;;3.42;0.90;;;16.20;99.90;;;;;;4935055;28;20051;-41
2022/05/25 12:25:04;;;;;;;4.30;0.60;;;16.30;99.90;;;;;;4917176;28;21397;-41
2022/05/25 12:27:37;;;;;;;4.53;0.75;;;16.30;99.90;;;;;;4904706;28;20502;-42
2022/05/25 12:30:09;;;;;;;4.20;0.50;;;16.40;99.90;;;;;;4935661;28;20066;-41
2022/05/25 12:32:36;;;;;;;;;;;16.40;99.90;;;;;;4918565;28;20710;-41
2022/05/25 12:35:04;;;;;;;2.85;0.68;;;16.50;99.90;;;;;;4913600;28;19953;-42
2022/05/25 12:37:35;;;;;;;3.78;0.52;;;16.50;99.90;;;;;;4920862;28;20046;-41
2022/05/25 12:40:05;;;;;;;0.80;0.20;;;16.60;99.90;;;;;;4939389;28;20055;-41
2022/05/25 12:42:37;;;;;;;2.75;0.28;;;16.60;99.90;;;;;;4941298;28;20057;-41
2022/05/25 12:50:47;;;;;;;3.65;0.47;;;16.70;99.90;;;;;;4941711;28;20085;-41
2022/05/25 12:53:28;;;;;;;4.70;0.40;;;16.80;99.90;;;;;;4938903;28;20208;-41
2022/05/25 12:55:57;;;;;;;4.40;0.40;;;16.80;99.90;;;;;;4949395;28;20150;-41
2022/05/25 12:58:43;;;;;;;4.28;0.50;;;16.80;99.90;;;;;;4922752;28;20075;-41
2022/05/25 13:01:38;;;;;;;3.88;0.30;;;16.80;99.90;;;;;;4949772;28;21941;-41
2022/05/25 13:04:39;;;;;;;2.58;0.50;;;16.80;99.90;;;;;;4934990;28;20050;-41
2022/05/25 13:07:14;;;;;;;3.40;0.70;;;16.90;99.90;;;;;;4926200;28;20059;-41
2022/05/25 13:09:41;;;;;;;6.25;1.02;;;16.90;99.90;;;;;;4949257;28;20059;-44
2022/05/25 13:12:36;;;;;;;4.00;0.85;;;16.90;99.90;;;;;;4938202;28;20417;-43
2022/05/25 13:15:02;;;;;;;2.25;0.50;;;17.00;99.90;;;;;;4948358;28;20560;-41
2022/05/25 13:17:43;;;;;;;3.63;0.60;;;16.90;99.90;;;;;;4927791;28;20055;-42
2022/05/25 13:20:14;;;;;;;4.75;0.75;;;17.00;99.90;;;;;;4942045;28;20400;-42
2022/05/25 13:22:40;;;;;;;;;;;17.00;99.90;;;;;;4937234;28;20050;-42
2022/05/25 13:25:24;;;;;;;1.63;0.60;;;17.10;99.90;;;;;;4947010;28;20493;-42
2022/05/25 13:28:31;;;;;;;4.65;0.70;;;17.10;99.90;;;;;;4918081;28;20047;-42
2022/05/25 13:31:05;;;;;;;3.22;0.52;;;17.10;99.90;;;;;;4943857;28;20975;-41
2022/05/25 13:33:43;;;;;;;3.13;0.85;;;17.10;99.90;;;;;;4945858;28;20410;-42
2022/05/25 13:36:17;;;;;;;5.22;0.70;;;17.10;99.90;;;;;;4932605;28;20134;-41
2022/05/25 13:38:51;;;;;;;3.72;0.57;;;17.00;99.90;;;;;;4946002;28;20061;-41
2022/05/25 13:41:20;;;;;;;4.07;0.70;;;17.00;99.90;;;;;;4947791;28;20537;-41